Roscommon, MI (48653)

4:03 AM EDT on April 19, 2015 (GMT -0400)
Higgins Lake Point Detroit | | Change Station
CLOSE
Current Station
Personal Weather Station
Location: Roscommon, MI
Elevation: 1165 ft
Nearby Weather Stations

Elev 1165 ft 44.47 °N, 84.71 °W | Updated 17 seconds ago

Clear
Clear
33.8 °F
Feels Like 34 °F
N
1.8
Wind Variable Wind from SW
Gusts 3.1 mph

Today
High -- | Low -- °F
--% Chance of Precip.
Yesterday
High -- | Low -- °F
Precip. -- in
6:48 AM 8:28 PM
New Moon, 0% visible
Pressure 30.14 in
Visibility 10.0 miles
Clouds Clear
Windchill 34 °F
Dew Point 24 °F
Humidity 67%
Rainfall 0.00 in
Snow Depth Not available.
UV 0 out of 12
Pollen 10.90 out of 12
Air Quality Not available.
Flu Activity Regional
METAR KHTL 190753Z AUTO 10007KT 10SM CLR 03/M04 A3013 RMK AO2 SLP206 T00331039 $

More Conditions Fewer Conditions

Pressure 30.14 in
Visibility 10.0 miles
Clouds Clear
Windchill 34 °F
Dew Point 24 °F
Humidity 67%
Rainfall 0.00 in
Snow Depth Not available.
UV 0 out of 12
Pollen 10.90 out of 12
Air Quality Not available.
Flu Activity Regional
METAR KHTL 190753Z AUTO 10007KT 10SM CLR 03/M04 A3013 RMK AO2 SLP206 T00331039 $

More Conditions Fewer Conditions

Nowcast | as of 4:00 am EDT on April 19, 2015

At 5 am...mostly clear. Temperature 38. East winds 10 mph. At 7 am...mostly clear. Temperature 39. East winds 11 mph. At 9 am...partly cloudy. Temperature 43. Southeast winds 14 mph. At 11 am...partly cloudy. Temperature 50. Southeast winds 14 mph.

×

10-Day Weather Forecast

Almanac

Astronomy

Apr. 19, 2015 Rise Set
Actual Time
Civil Twilight
Nautical Twilight
Astronomical Twilight
Moon
Length of Visible Light
Length of Day
Tomorrow will be .
, % of the Moon is Illuminated

Today's Extremes

State Highs State Lows

Community

WunderPhotos

Upload Photos

1,814,723 photos uploaded!

WunderBlogs® & News

Nearby

Air Quality

  Air Quality AQ Index Pollutant
Not available.

Snow Depth

Station Depth Elevation

Earthquake Activity

City Distance Mag. Time & Date
Minimum magnitude displayed is 2.5.

Coastal Water Temperatures

Place Temperature

Stations

Nearby Weather Stations

Station Location Temp. Windchill Dew Point Humidity Wind Precip. Elev Updated Type